sensor_id;sensor_type;location;lat;lon;timestamp;P1;durP1;ratioP1;P2;durP2;ratioP2
13568;SDS011;6856;51.460;7.158;2023-03-01T00:01:54;4.57;;;3.80;;
13568;SDS011;6856;51.460;7.158;2023-03-01T00:04:29;5.57;;;4.40;;
13568;SDS011;6856;51.460;7.158;2023-03-01T00:07:03;5.87;;;4.27;;
13568;SDS011;6856;51.460;7.158;2023-03-01T00:09:37;5.27;;;4.43;;
13568;SDS011;6856;51.460;7.158;2023-03-01T00:12:11;5.43;;;4.37;;
13568;SDS011;6856;51.460;7.158;2023-03-01T00:14:45;6.07;;;4.67;;
13568;SDS011;6856;51.460;7.158;2023-03-01T00:17:19;5.10;;;4.33;;
13568;SDS011;6856;51.460;7.158;2023-03-01T00:19:55;5.33;;;4.37;;
13568;SDS011;6856;51.460;7.158;2023-03-01T00:22:29;6.07;;;4.40;;
13568;SDS011;6856;51.460;7.158;2023-03-01T00:25:02;6.03;;;5.13;;
13568;SDS011;6856;51.460;7.158;2023-03-01T00:27:36;5.17;;;4.13;;
13568;SDS011;6856;51.460;7.158;2023-03-01T00:30:10;5.47;;;4.20;;
13568;SDS011;6856;51.460;7.158;2023-03-01T00:32:44;7.33;;;5.40;;
13568;SDS011;6856;51.460;7.158;2023-03-01T00:35:19;5.07;;;4.03;;
13568;SDS011;6856;51.460;7.158;2023-03-01T00:37:54;5.80;;;4.83;;
13568;SDS011;6856;51.460;7.158;2023-03-01T00:40:30;6.17;;;4.73;;
13568;SDS011;6856;51.460;7.158;2023-03-01T00:43:06;6.07;;;4.70;;
13568;SDS011;6856;51.460;7.158;2023-03-01T00:45:41;5.10;;;4.10;;
13568;SDS011;6856;51.460;7.158;2023-03-01T00:48:15;6.33;;;4.33;;
13568;SDS011;6856;51.460;7.158;2023-03-01T00:50:51;5.13;;;4.27;;
13568;SDS011;6856;51.460;7.158;2023-03-01T00:53:24;5.10;;;3.73;;
13568;SDS011;6856;51.460;7.158;2023-03-01T00:55:58;5.77;;;4.50;;
13568;SDS011;6856;51.460;7.158;2023-03-01T00:58:33;6.07;;;4.37;;
13568;SDS011;6856;51.460;7.158;2023-03-01T01:01:08;6.30;;;4.53;;
13568;SDS011;6856;51.460;7.158;2023-03-01T01:03:49;6.50;;;4.60;;
13568;SDS011;6856;51.460;7.158;2023-03-01T01:06:28;5.33;;;3.83;;
13568;SDS011;6856;51.460;7.158;2023-03-01T01:09:06;4.73;;;3.53;;
13568;SDS011;6856;51.460;7.158;2023-03-01T01:11:40;5.67;;;4.07;;
13568;SDS011;6856;51.460;7.158;2023-03-01T01:14:14;4.33;;;3.80;;
13568;SDS011;6856;51.460;7.158;2023-03-01T01:16:50;4.90;;;4.10;;
13568;SDS011;6856;51.460;7.158;2023-03-01T01:19:24;5.77;;;4.30;;
13568;SDS011;6856;51.460;7.158;2023-03-01T01:22:00;5.33;;;4.20;;
13568;SDS011;6856;51.460;7.158;2023-03-01T01:24:35;4.93;;;4.37;;
13568;SDS011;6856;51.460;7.158;2023-03-01T01:27:09;5.40;;;4.40;;
13568;SDS011;6856;51.460;7.158;2023-03-01T01:29:43;6.17;;;4.40;;
13568;SDS011;6856;51.460;7.158;2023-03-01T01:32:17;5.17;;;4.27;;
13568;SDS011;6856;51.460;7.158;2023-03-01T01:34:51;5.97;;;4.37;;
13568;SDS011;6856;51.460;7.158;2023-03-01T01:37:26;5.63;;;4.20;;
13568;SDS011;6856;51.460;7.158;2023-03-01T01:40:02;5.97;;;4.30;;
13568;SDS011;6856;51.460;7.158;2023-03-01T01:42:37;4.57;;;3.60;;
13568;SDS011;6856;51.460;7.158;2023-03-01T01:45:28;5.03;;;4.13;;
13568;SDS011;6856;51.460;7.158;2023-03-01T01:48:12;5.10;;;4.20;;
13568;SDS011;6856;51.460;7.158;2023-03-01T01:50:54;6.00;;;4.73;;
13568;SDS011;6856;51.460;7.158;2023-03-01T01:53:35;5.57;;;4.60;;
13568;SDS011;6856;51.460;7.158;2023-03-01T01:56:11;5.20;;;4.20;;
13568;SDS011;6856;51.460;7.158;2023-03-01T01:58:48;5.00;;;4.07;;
13568;SDS011;6856;51.460;7.158;2023-03-01T02:01:22;5.37;;;4.43;;
13568;SDS011;6856;51.460;7.158;2023-03-01T02:03:56;5.60;;;4.80;;
13568;SDS011;6856;51.460;7.158;2023-03-01T02:06:32;6.00;;;4.93;;
13568;SDS011;6856;51.460;7.158;2023-03-01T02:09:16;6.37;;;4.87;;
13568;SDS011;6856;51.460;7.158;2023-03-01T02:11:53;7.23;;;4.67;;
13568;SDS011;6856;51.460;7.158;2023-03-01T02:14:27;5.07;;;4.07;;
13568;SDS011;6856;51.460;7.158;2023-03-01T02:17:01;7.07;;;5.30;;
13568;SDS011;6856;51.460;7.158;2023-03-01T02:19:39;5.53;;;4.50;;
13568;SDS011;6856;51.460;7.158;2023-03-01T02:22:29;5.80;;;4.67;;
13568;SDS011;6856;51.460;7.158;2023-03-01T02:25:10;5.70;;;4.40;;
13568;SDS011;6856;51.460;7.158;2023-03-01T02:27:58;5.50;;;4.33;;
13568;SDS011;6856;51.460;7.158;2023-03-01T02:30:46;4.87;;;4.37;;
13568;SDS011;6856;51.460;7.158;2023-03-01T02:33:40;6.57;;;5.13;;
13568;SDS011;6856;51.460;7.158;2023-03-01T02:36:17;5.60;;;4.43;;
13568;SDS011;6856;51.460;7.158;2023-03-01T02:38:57;5.70;;;4.50;;
13568;SDS011;6856;51.460;7.158;2023-03-01T02:41:35;5.20;;;4.40;;
13568;SDS011;6856;51.460;7.158;2023-03-01T02:44:11;5.27;;;4.77;;
13568;SDS011;6856;51.460;7.158;2023-03-01T02:46:47;5.10;;;4.20;;
13568;SDS011;6856;51.460;7.158;2023-03-01T02:49:25;6.17;;;5.10;;
13568;SDS011;6856;51.460;7.158;2023-03-01T02:52:11;6.93;;;5.17;;
13568;SDS011;6856;51.460;7.158;2023-03-01T02:55:02;6.67;;;5.20;;
13568;SDS011;6856;51.460;7.158;2023-03-01T02:57:41;7.40;;;4.87;;
13568;SDS011;6856;51.460;7.158;2023-03-01T03:00:23;5.43;;;4.40;;
13568;SDS011;6856;51.460;7.158;2023-03-01T03:03:06;5.23;;;4.50;;
13568;SDS011;6856;51.460;7.158;2023-03-01T03:05:42;6.93;;;4.80;;
13568;SDS011;6856;51.460;7.158;2023-03-01T03:08:17;5.87;;;4.50;;
13568;SDS011;6856;51.460;7.158;2023-03-01T03:10:55;5.37;;;4.00;;
13568;SDS011;6856;51.460;7.158;2023-03-01T03:13:30;6.13;;;4.97;;
13568;SDS011;6856;51.460;7.158;2023-03-01T03:16:04;6.33;;;4.90;;
13568;SDS011;6856;51.460;7.158;2023-03-01T03:18:41;6.53;;;5.27;;
13568;SDS011;6856;51.460;7.158;2023-03-01T03:21:14;6.10;;;5.03;;
13568;SDS011;6856;51.460;7.158;2023-03-01T03:23:49;5.93;;;4.57;;
13568;SDS011;6856;51.460;7.158;2023-03-01T03:26:23;6.63;;;5.10;;
13568;SDS011;6856;51.460;7.158;2023-03-01T03:28:57;6.27;;;4.87;;
13568;SDS011;6856;51.460;7.158;2023-03-01T03:31:32;7.03;;;5.20;;
13568;SDS011;6856;51.460;7.158;2023-03-01T03:34:08;7.03;;;4.80;;
13568;SDS011;6856;51.460;7.158;2023-03-01T03:36:52;5.03;;;4.50;;
13568;SDS011;6856;51.460;7.158;2023-03-01T03:39:31;5.80;;;5.03;;
13568;SDS011;6856;51.460;7.158;2023-03-01T03:42:06;6.70;;;4.57;;
13568;SDS011;6856;51.460;7.158;2023-03-01T03:44:41;6.50;;;4.93;;
13568;SDS011;6856;51.460;7.158;2023-03-01T03:47:15;6.87;;;5.70;;
13568;SDS011;6856;51.460;7.158;2023-03-01T03:49:50;7.37;;;5.53;;
13568;SDS011;6856;51.460;7.158;2023-03-01T03:52:25;7.87;;;5.50;;
13568;SDS011;6856;51.460;7.158;2023-03-01T03:54:59;5.73;;;5.10;;
13568;SDS011;6856;51.460;7.158;2023-03-01T03:57:34;7.23;;;5.53;;
13568;SDS011;6856;51.460;7.158;2023-03-01T04:00:09;6.80;;;4.93;;
13568;SDS011;6856;51.460;7.158;2023-03-01T04:02:46;5.77;;;4.77;;
13568;SDS011;6856;51.460;7.158;2023-03-01T04:05:22;5.90;;;4.80;;
13568;SDS011;6856;51.460;7.158;2023-03-01T04:07:57;6.33;;;5.30;;
13568;SDS011;6856;51.460;7.158;2023-03-01T04:10:35;5.13;;;4.63;;
13568;SDS011;6856;51.460;7.158;2023-03-01T04:13:12;6.33;;;4.93;;
13568;SDS011;6856;51.460;7.158;2023-03-01T04:15:48;6.83;;;5.23;;
13568;SDS011;6856;51.460;7.158;2023-03-01T04:18:23;6.40;;;4.83;;
13568;SDS011;6856;51.460;7.158;2023-03-01T04:20:59;6.57;;;4.77;;
13568;SDS011;6856;51.460;7.158;2023-03-01T04:23:34;5.70;;;4.50;;
13568;SDS011;6856;51.460;7.158;2023-03-01T04:26:09;5.97;;;4.50;;
13568;SDS011;6856;51.460;7.158;2023-03-01T04:28:43;5.87;;;5.23;;
13568;SDS011;6856;51.460;7.158;2023-03-01T04:31:19;5.53;;;4.27;;
13568;SDS011;6856;51.460;7.158;2023-03-01T04:33:55;6.60;;;5.23;;
13568;SDS011;6856;51.460;7.158;2023-03-01T04:36:30;5.20;;;4.70;;
13568;SDS011;6856;51.460;7.158;2023-03-01T04:39:07;6.83;;;5.13;;
13568;SDS011;6856;51.460;7.158;2023-03-01T04:41:43;5.53;;;4.83;;
13568;SDS011;6856;51.460;7.158;2023-03-01T04:44:18;6.33;;;5.07;;
13568;SDS011;6856;51.460;7.158;2023-03-01T04:46:54;5.63;;;5.00;;
13568;SDS011;6856;51.460;7.158;2023-03-01T04:49:28;5.37;;;4.53;;
13568;SDS011;6856;51.460;7.158;2023-03-01T04:52:04;6.57;;;5.07;;
13568;SDS011;6856;51.460;7.158;2023-03-01T04:54:38;5.90;;;4.93;;
13568;SDS011;6856;51.460;7.158;2023-03-01T04:57:12;6.20;;;5.03;;
13568;SDS011;6856;51.460;7.158;2023-03-01T04:59:46;6.03;;;5.27;;
13568;SDS011;6856;51.460;7.158;2023-03-01T05:02:20;6.93;;;5.77;;
13568;SDS011;6856;51.460;7.158;2023-03-01T05:04:54;7.23;;;5.73;;
13568;SDS011;6856;51.460;7.158;2023-03-01T05:07:30;7.47;;;5.43;;
13568;SDS011;6856;51.460;7.158;2023-03-01T05:10:04;5.93;;;5.13;;
13568;SDS011;6856;51.460;7.158;2023-03-01T05:12:39;6.13;;;5.43;;
13568;SDS011;6856;51.460;7.158;2023-03-01T05:15:13;6.60;;;5.30;;
13568;SDS011;6856;51.460;7.158;2023-03-01T05:17:47;7.23;;;5.57;;
13568;SDS011;6856;51.460;7.158;2023-03-01T05:20:21;7.63;;;5.80;;
13568;SDS011;6856;51.460;7.158;2023-03-01T05:22:57;8.03;;;5.53;;
13568;SDS011;6856;51.460;7.158;2023-03-01T05:25:37;7.30;;;5.50;;
13568;SDS011;6856;51.460;7.158;2023-03-01T05:28:13;6.57;;;5.23;;
13568;SDS011;6856;51.460;7.158;2023-03-01T05:30:47;6.13;;;5.20;;
13568;SDS011;6856;51.460;7.158;2023-03-01T05:33:23;6.80;;;5.57;;
13568;SDS011;6856;51.460;7.158;2023-03-01T05:35:59;6.50;;;5.20;;
13568;SDS011;6856;51.460;7.158;2023-03-01T05:38:35;8.93;;;5.80;;
13568;SDS011;6856;51.460;7.158;2023-03-01T05:41:13;6.10;;;5.20;;
13568;SDS011;6856;51.460;7.158;2023-03-01T05:43:52;7.87;;;5.80;;
13568;SDS011;6856;51.460;7.158;2023-03-01T05:46:29;7.47;;;5.50;;
13568;SDS011;6856;51.460;7.158;2023-03-01T05:49:03;7.10;;;5.57;;
13568;SDS011;6856;51.460;7.158;2023-03-01T05:51:37;8.77;;;5.53;;
13568;SDS011;6856;51.460;7.158;2023-03-01T05:54:13;6.50;;;5.80;;
13568;SDS011;6856;51.460;7.158;2023-03-01T05:56:47;8.00;;;6.53;;
13568;SDS011;6856;51.460;7.158;2023-03-01T05:59:22;6.67;;;5.97;;
13568;SDS011;6856;51.460;7.158;2023-03-01T06:01:56;7.50;;;5.90;;
13568;SDS011;6856;51.460;7.158;2023-03-01T06:04:30;7.17;;;5.87;;
13568;SDS011;6856;51.460;7.158;2023-03-01T06:07:04;5.73;;;4.90;;
13568;SDS011;6856;51.460;7.158;2023-03-01T06:09:39;7.40;;;5.77;;
13568;SDS011;6856;51.460;7.158;2023-03-01T06:12:13;7.30;;;5.90;;
13568;SDS011;6856;51.460;7.158;2023-03-01T06:14:47;9.37;;;6.03;;
13568;SDS011;6856;51.460;7.158;2023-03-01T06:17:21;7.53;;;6.33;;
13568;SDS011;6856;51.460;7.158;2023-03-01T06:19:55;7.87;;;6.00;;
13568;SDS011;6856;51.460;7.158;2023-03-01T06:22:29;7.23;;;5.50;;
13568;SDS011;6856;51.460;7.158;2023-03-01T06:25:05;6.67;;;5.50;;
13568;SDS011;6856;51.460;7.158;2023-03-01T06:27:40;7.53;;;6.07;;
13568;SDS011;6856;51.460;7.158;2023-03-01T06:30:15;7.23;;;5.73;;
13568;SDS011;6856;51.460;7.158;2023-03-01T06:32:54;7.80;;;6.37;;
13568;SDS011;6856;51.460;7.158;2023-03-01T06:35:32;7.93;;;6.20;;
13568;SDS011;6856;51.460;7.158;2023-03-01T06:38:07;7.63;;;6.83;;
13568;SDS011;6856;51.460;7.158;2023-03-01T06:40:44;6.97;;;5.90;;
13568;SDS011;6856;51.460;7.158;2023-03-01T06:43:23;7.23;;;6.00;;
13568;SDS011;6856;51.460;7.158;2023-03-01T06:45:57;6.90;;;6.20;;
13568;SDS011;6856;51.460;7.158;2023-03-01T06:48:32;7.63;;;6.57;;
13568;SDS011;6856;51.460;7.158;2023-03-01T06:51:06;8.80;;;7.30;;
13568;SDS011;6856;51.460;7.158;2023-03-01T06:53:40;7.93;;;6.37;;
13568;SDS011;6856;51.460;7.158;2023-03-01T06:56:15;12.43;;;6.77;;
13568;SDS011;6856;51.460;7.158;2023-03-01T06:58:49;7.77;;;6.23;;
13568;SDS011;6856;51.460;7.158;2023-03-01T07:01:23;8.93;;;6.67;;
13568;SDS011;6856;51.460;7.158;2023-03-01T07:03:58;8.00;;;6.50;;
13568;SDS011;6856;51.460;7.158;2023-03-01T07:06:32;9.60;;;6.30;;
13568;SDS011;6856;51.460;7.158;2023-03-01T07:09:09;6.63;;;5.97;;
13568;SDS011;6856;51.460;7.158;2023-03-01T07:11:44;7.70;;;6.37;;
13568;SDS011;6856;51.460;7.158;2023-03-01T07:14:19;7.40;;;5.63;;
13568;SDS011;6856;51.460;7.158;2023-03-01T07:16:53;7.80;;;6.93;;
13568;SDS011;6856;51.460;7.158;2023-03-01T07:19:28;7.80;;;6.33;;
13568;SDS011;6856;51.460;7.158;2023-03-01T07:22:02;7.13;;;6.43;;
13568;SDS011;6856;51.460;7.158;2023-03-01T07:24:39;7.60;;;6.10;;
13568;SDS011;6856;51.460;7.158;2023-03-01T07:27:15;9.67;;;6.50;;
13568;SDS011;6856;51.460;7.158;2023-03-01T07:29:51;8.47;;;7.30;;
13568;SDS011;6856;51.460;7.158;2023-03-01T07:32:25;7.43;;;6.37;;
13568;SDS011;6856;51.460;7.158;2023-03-01T07:34:59;8.67;;;6.83;;
13568;SDS011;6856;51.460;7.158;2023-03-01T07:37:33;7.27;;;6.57;;
13568;SDS011;6856;51.460;7.158;2023-03-01T07:40:07;7.77;;;6.97;;
13568;SDS011;6856;51.460;7.158;2023-03-01T07:42:44;7.43;;;6.67;;
13568;SDS011;6856;51.460;7.158;2023-03-01T07:45:18;11.20;;;7.63;;
13568;SDS011;6856;51.460;7.158;2023-03-01T07:47:52;9.07;;;7.40;;
13568;SDS011;6856;51.460;7.158;2023-03-01T07:50:27;8.43;;;6.87;;
13568;SDS011;6856;51.460;7.158;2023-03-01T07:53:01;9.07;;;7.17;;
13568;SDS011;6856;51.460;7.158;2023-03-01T07:55:36;8.47;;;7.20;;
13568;SDS011;6856;51.460;7.158;2023-03-01T07:58:13;8.30;;;7.10;;
13568;SDS011;6856;51.460;7.158;2023-03-01T08:00:46;8.77;;;7.23;;
13568;SDS011;6856;51.460;7.158;2023-03-01T08:03:20;8.53;;;7.43;;
13568;SDS011;6856;51.460;7.158;2023-03-01T08:05:54;8.30;;;6.93;;
13568;SDS011;6856;51.460;7.158;2023-03-01T08:08:28;10.10;;;7.43;;
13568;SDS011;6856;51.460;7.158;2023-03-01T08:11:03;9.43;;;6.70;;
13568;SDS011;6856;51.460;7.158;2023-03-01T08:13:41;8.93;;;6.83;;
13568;SDS011;6856;51.460;7.158;2023-03-01T08:16:16;8.50;;;6.97;;
13568;SDS011;6856;51.460;7.158;2023-03-01T08:18:50;7.80;;;6.60;;
13568;SDS011;6856;51.460;7.158;2023-03-01T08:21:27;7.97;;;6.43;;
13568;SDS011;6856;51.460;7.158;2023-03-01T08:24:01;9.83;;;7.27;;
13568;SDS011;6856;51.460;7.158;2023-03-01T08:26:38;9.17;;;7.40;;
13568;SDS011;6856;51.460;7.158;2023-03-01T08:29:14;8.43;;;6.73;;
13568;SDS011;6856;51.460;7.158;2023-03-01T08:31:48;7.43;;;6.57;;
13568;SDS011;6856;51.460;7.158;2023-03-01T08:34:22;7.63;;;6.53;;
13568;SDS011;6856;51.460;7.158;2023-03-01T08:36:56;9.67;;;6.97;;
13568;SDS011;6856;51.460;7.158;2023-03-01T08:39:30;8.47;;;6.97;;
13568;SDS011;6856;51.460;7.158;2023-03-01T08:42:04;8.57;;;6.93;;
13568;SDS011;6856;51.460;7.158;2023-03-01T08:44:39;9.07;;;7.30;;
13568;SDS011;6856;51.460;7.158;2023-03-01T08:47:16;9.17;;;7.47;;
13568;SDS011;6856;51.460;7.158;2023-03-01T08:49:50;7.80;;;6.37;;
13568;SDS011;6856;51.460;7.158;2023-03-01T08:52:24;10.60;;;6.30;;
13568;SDS011;6856;51.460;7.158;2023-03-01T08:54:59;8.07;;;6.17;;
13568;SDS011;6856;51.460;7.158;2023-03-01T08:57:34;6.80;;;5.70;;
13568;SDS011;6856;51.460;7.158;2023-03-01T09:00:11;8.10;;;6.50;;
13568;SDS011;6856;51.460;7.158;2023-03-01T09:02:47;6.87;;;6.17;;
13568;SDS011;6856;51.460;7.158;2023-03-01T09:05:21;8.07;;;6.43;;
13568;SDS011;6856;51.460;7.158;2023-03-01T09:07:55;6.83;;;5.93;;
13568;SDS011;6856;51.460;7.158;2023-03-01T09:10:30;7.10;;;5.97;;
13568;SDS011;6856;51.460;7.158;2023-03-01T09:13:04;6.70;;;5.70;;
13568;SDS011;6856;51.460;7.158;2023-03-01T09:15:41;8.70;;;6.10;;
13568;SDS011;6856;51.460;7.158;2023-03-01T09:18:14;7.97;;;5.80;;
13568;SDS011;6856;51.460;7.158;2023-03-01T09:20:48;8.37;;;6.37;;
13568;SDS011;6856;51.460;7.158;2023-03-01T09:23:22;7.40;;;6.00;;
13568;SDS011;6856;51.460;7.158;2023-03-01T09:25:56;7.53;;;5.73;;
13568;SDS011;6856;51.460;7.158;2023-03-01T09:28:30;8.43;;;6.60;;
13568;SDS011;6856;51.460;7.158;2023-03-01T09:31:06;10.23;;;5.80;;
13568;SDS011;6856;51.460;7.158;2023-03-01T09:33:40;7.80;;;5.50;;
13568;SDS011;6856;51.460;7.158;2023-03-01T09:36:16;6.73;;;5.57;;
13568;SDS011;6856;51.460;7.158;2023-03-01T09:38:52;8.83;;;5.90;;
13568;SDS011;6856;51.460;7.158;2023-03-01T09:41:32;7.17;;;5.60;;
13568;SDS011;6856;51.460;7.158;2023-03-01T09:44:31;6.33;;;5.27;;
13568;SDS011;6856;51.460;7.158;2023-03-01T09:47:15;6.30;;;5.00;;
13568;SDS011;6856;51.460;7.158;2023-03-01T09:49:54;8.23;;;5.93;;
13568;SDS011;6856;51.460;7.158;2023-03-01T09:52:39;6.37;;;5.20;;
13568;SDS011;6856;51.460;7.158;2023-03-01T09:55:17;8.87;;;5.00;;
13568;SDS011;6856;51.460;7.158;2023-03-01T09:58:05;7.53;;;5.53;;
13568;SDS011;6856;51.460;7.158;2023-03-01T10:01:06;5.43;;;4.67;;
13568;SDS011;6856;51.460;7.158;2023-03-01T10:04:23;5.97;;;4.70;;
13568;SDS011;6856;51.460;7.158;2023-03-01T10:07:17;6.40;;;4.73;;
13568;SDS011;6856;51.460;7.158;2023-03-01T10:10:05;6.60;;;4.67;;
13568;SDS011;6856;51.460;7.158;2023-03-01T10:12:41;6.83;;;5.10;;
13568;SDS011;6856;51.460;7.158;2023-03-01T10:15:18;6.37;;;4.57;;
13568;SDS011;6856;51.460;7.158;2023-03-01T10:17:57;7.53;;;4.60;;
13568;SDS011;6856;51.460;7.158;2023-03-01T10:20:44;6.03;;;4.60;;
13568;SDS011;6856;51.460;7.158;2023-03-01T10:23:23;6.20;;;4.30;;
13568;SDS011;6856;51.460;7.158;2023-03-01T10:29:12;6.03;;;4.50;;
13568;SDS011;6856;51.460;7.158;2023-03-01T10:31:47;6.47;;;4.20;;
13568;SDS011;6856;51.460;7.158;2023-03-01T10:34:27;5.50;;;3.97;;
13568;SDS011;6856;51.460;7.158;2023-03-01T10:37:10;5.67;;;4.30;;
13568;SDS011;6856;51.460;7.158;2023-03-01T10:39:57;5.60;;;4.77;;
13568;SDS011;6856;51.460;7.158;2023-03-01T10:42:45;6.27;;;4.63;;
13568;SDS011;6856;51.460;7.158;2023-03-01T10:45:27;4.77;;;4.17;;
13568;SDS011;6856;51.460;7.158;2023-03-01T10:48:11;6.17;;;4.37;;
13568;SDS011;6856;51.460;7.158;2023-03-01T10:50:48;6.13;;;4.67;;
13568;SDS011;6856;51.460;7.158;2023-03-01T10:53:27;5.43;;;3.97;;
13568;SDS011;6856;51.460;7.158;2023-03-01T10:56:06;4.83;;;4.13;;
13568;SDS011;6856;51.460;7.158;2023-03-01T10:58:57;6.27;;;4.33;;
13568;SDS011;6856;51.460;7.158;2023-03-01T11:01:33;5.73;;;4.27;;
13568;SDS011;6856;51.460;7.158;2023-03-01T11:04:10;5.77;;;4.57;;
13568;SDS011;6856;51.460;7.158;2023-03-01T11:06:46;6.13;;;4.07;;
13568;SDS011;6856;51.460;7.158;2023-03-01T11:09:33;5.87;;;4.63;;
13568;SDS011;6856;51.460;7.158;2023-03-01T11:12:13;5.63;;;3.97;;
13568;SDS011;6856;51.460;7.158;2023-03-01T11:14:49;5.60;;;4.40;;
13568;SDS011;6856;51.460;7.158;2023-03-01T11:17:27;6.07;;;4.20;;
13568;SDS011;6856;51.460;7.158;2023-03-01T11:20:25;7.60;;;4.70;;
13568;SDS011;6856;51.460;7.158;2023-03-01T11:23:05;6.00;;;4.20;;
13568;SDS011;6856;51.460;7.158;2023-03-01T11:25:47;5.87;;;3.93;;
13568;SDS011;6856;51.460;7.158;2023-03-01T11:28:28;5.27;;;4.30;;
13568;SDS011;6856;51.460;7.158;2023-03-01T11:31:03;5.83;;;4.57;;
13568;SDS011;6856;51.460;7.158;2023-03-01T11:33:41;6.47;;;4.50;;
13568;SDS011;6856;51.460;7.158;2023-03-01T11:36:24;5.73;;;4.37;;
13568;SDS011;6856;51.460;7.158;2023-03-01T11:39:12;6.07;;;4.33;;
13568;SDS011;6856;51.460;7.158;2023-03-01T11:42:02;5.57;;;4.47;;
13568;SDS011;6856;51.460;7.158;2023-03-01T11:44:50;6.43;;;4.97;;
13568;SDS011;6856;51.460;7.158;2023-03-01T11:47:33;5.27;;;4.37;;
13568;SDS011;6856;51.460;7.158;2023-03-01T11:50:33;7.60;;;4.70;;
13568;SDS011;6856;51.460;7.158;2023-03-01T11:53:19;6.23;;;4.63;;
13568;SDS011;6856;51.460;7.158;2023-03-01T11:56:23;5.83;;;4.53;;
13568;SDS011;6856;51.460;7.158;2023-03-01T11:59:11;6.37;;;4.33;;
13568;SDS011;6856;51.460;7.158;2023-03-01T12:02:27;6.40;;;4.73;;
13568;SDS011;6856;51.460;7.158;2023-03-01T12:09:09;5.70;;;3.97;;
13568;SDS011;6856;51.460;7.158;2023-03-01T12:12:03;5.23;;;4.10;;
13568;SDS011;6856;51.460;7.158;2023-03-01T12:15:20;5.80;;;4.37;;
13568;SDS011;6856;51.460;7.158;2023-03-01T12:18:19;6.13;;;4.00;;
13568;SDS011;6856;51.460;7.158;2023-03-01T12:21:19;6.70;;;4.10;;
13568;SDS011;6856;51.460;7.158;2023-03-01T12:24:12;5.70;;;3.80;;
13568;SDS011;6856;51.460;7.158;2023-03-01T12:27:40;5.67;;;4.07;;
13568;SDS011;6856;51.460;7.158;2023-03-01T12:31:03;6.57;;;4.57;;
13568;SDS011;6856;51.460;7.158;2023-03-01T12:34:03;5.73;;;4.23;;
13568;SDS011;6856;51.460;7.158;2023-03-01T12:37:10;5.97;;;3.87;;
13568;SDS011;6856;51.460;7.158;2023-03-01T12:40:15;6.30;;;3.80;;
13568;SDS011;6856;51.460;7.158;2023-03-01T12:43:17;5.67;;;4.00;;
13568;SDS011;6856;51.460;7.158;2023-03-01T12:46:13;5.27;;;3.70;;
13568;SDS011;6856;51.460;7.158;2023-03-01T12:48:59;4.73;;;3.63;;
13568;SDS011;6856;51.460;7.158;2023-03-01T12:51:42;8.00;;;4.30;;
13568;SDS011;6856;51.460;7.158;2023-03-01T12:54:28;5.23;;;3.70;;
13568;SDS011;6856;51.460;7.158;2023-03-01T12:57:10;5.53;;;4.00;;
13568;SDS011;6856;51.460;7.158;2023-03-01T12:59:59;4.83;;;3.87;;
13568;SDS011;6856;51.460;7.158;2023-03-01T13:02:52;5.13;;;3.33;;
13568;SDS011;6856;51.460;7.158;2023-03-01T13:05:37;5.77;;;3.50;;
13568;SDS011;6856;51.460;7.158;2023-03-01T13:08:29;4.43;;;3.27;;
13568;SDS011;6856;51.460;7.158;2023-03-01T13:11:15;5.53;;;4.13;;
13568;SDS011;6856;51.460;7.158;2023-03-01T13:13:59;6.97;;;4.43;;
13568;SDS011;6856;51.460;7.158;2023-03-01T13:20:16;6.10;;;4.60;;
13568;SDS011;6856;51.460;7.158;2023-03-01T13:23:01;5.40;;;3.83;;
13568;SDS011;6856;51.460;7.158;2023-03-01T13:28:46;4.97;;;3.63;;
13568;SDS011;6856;51.460;7.158;2023-03-01T13:34:40;7.90;;;3.80;;
13568;SDS011;6856;51.460;7.158;2023-03-01T13:43:36;5.50;;;3.70;;
13568;SDS011;6856;51.460;7.158;2023-03-01T13:46:15;5.13;;;3.80;;
13568;SDS011;6856;51.460;7.158;2023-03-01T13:48:56;4.47;;;3.43;;
13568;SDS011;6856;51.460;7.158;2023-03-01T13:51:30;6.50;;;3.43;;
13568;SDS011;6856;51.460;7.158;2023-03-01T13:54:04;5.07;;;3.70;;
13568;SDS011;6856;51.460;7.158;2023-03-01T13:56:44;5.60;;;3.67;;
13568;SDS011;6856;51.460;7.158;2023-03-01T13:59:21;5.70;;;4.23;;
13568;SDS011;6856;51.460;7.158;2023-03-01T14:01:58;7.13;;;4.17;;
13568;SDS011;6856;51.460;7.158;2023-03-01T14:04:35;5.63;;;4.07;;
13568;SDS011;6856;51.460;7.158;2023-03-01T14:07:10;6.33;;;4.37;;
13568;SDS011;6856;51.460;7.158;2023-03-01T14:09:50;5.23;;;3.73;;
13568;SDS011;6856;51.460;7.158;2023-03-01T14:12:36;5.53;;;4.30;;
13568;SDS011;6856;51.460;7.158;2023-03-01T14:15:19;5.00;;;4.03;;
13568;SDS011;6856;51.460;7.158;2023-03-01T14:18:01;6.40;;;4.73;;
13568;SDS011;6856;51.460;7.158;2023-03-01T14:20:45;5.90;;;4.57;;
13568;SDS011;6856;51.460;7.158;2023-03-01T14:23:23;7.23;;;5.00;;
13568;SDS011;6856;51.460;7.158;2023-03-01T14:25:58;8.03;;;4.63;;
13568;SDS011;6856;51.460;7.158;2023-03-01T14:28:33;5.83;;;4.33;;
13568;SDS011;6856;51.460;7.158;2023-03-01T14:31:30;6.53;;;4.73;;
13568;SDS011;6856;51.460;7.158;2023-03-01T14:34:24;6.30;;;4.63;;
13568;SDS011;6856;51.460;7.158;2023-03-01T14:37:10;6.13;;;4.23;;
13568;SDS011;6856;51.460;7.158;2023-03-01T14:39:52;5.37;;;3.90;;
13568;SDS011;6856;51.460;7.158;2023-03-01T14:42:28;6.43;;;4.93;;
13568;SDS011;6856;51.460;7.158;2023-03-01T14:45:09;5.93;;;4.40;;
13568;SDS011;6856;51.460;7.158;2023-03-01T14:47:47;6.87;;;4.40;;
13568;SDS011;6856;51.460;7.158;2023-03-01T14:50:24;5.50;;;4.03;;
13568;SDS011;6856;51.460;7.158;2023-03-01T14:53:03;6.87;;;4.40;;
13568;SDS011;6856;51.460;7.158;2023-03-01T14:55:41;5.57;;;4.47;;
13568;SDS011;6856;51.460;7.158;2023-03-01T14:58:20;7.40;;;5.10;;
13568;SDS011;6856;51.460;7.158;2023-03-01T15:00:58;7.53;;;4.77;;
13568;SDS011;6856;51.460;7.158;2023-03-01T15:03:36;7.23;;;4.90;;
13568;SDS011;6856;51.460;7.158;2023-03-01T15:06:16;6.27;;;4.57;;
13568;SDS011;6856;51.460;7.158;2023-03-01T15:08:54;7.23;;;4.80;;
13568;SDS011;6856;51.460;7.158;2023-03-01T15:11:30;5.60;;;4.17;;
13568;SDS011;6856;51.460;7.158;2023-03-01T15:17:20;6.90;;;5.10;;
13568;SDS011;6856;51.460;7.158;2023-03-01T15:20:03;7.23;;;5.00;;
13568;SDS011;6856;51.460;7.158;2023-03-01T15:22:48;5.50;;;4.13;;
13568;SDS011;6856;51.460;7.158;2023-03-01T15:25:25;6.10;;;4.43;;
13568;SDS011;6856;51.460;7.158;2023-03-01T15:28:01;5.87;;;4.50;;
13568;SDS011;6856;51.460;7.158;2023-03-01T15:30:36;6.30;;;4.13;;
13568;SDS011;6856;51.460;7.158;2023-03-01T15:33:16;5.37;;;4.13;;
13568;SDS011;6856;51.460;7.158;2023-03-01T15:36:00;4.93;;;3.73;;
13568;SDS011;6856;51.460;7.158;2023-03-01T15:38:49;5.10;;;4.00;;
13568;SDS011;6856;51.460;7.158;2023-03-01T15:41:28;5.93;;;3.93;;
13568;SDS011;6856;51.460;7.158;2023-03-01T15:44:14;4.90;;;3.80;;
13568;SDS011;6856;51.460;7.158;2023-03-01T15:46:49;5.30;;;4.07;;
13568;SDS011;6856;51.460;7.158;2023-03-01T15:49:33;5.87;;;4.20;;
13568;SDS011;6856;51.460;7.158;2023-03-01T15:52:26;5.93;;;4.27;;
13568;SDS011;6856;51.460;7.158;2023-03-01T15:55:10;5.43;;;4.27;;
13568;SDS011;6856;51.460;7.158;2023-03-01T15:57:56;5.07;;;4.23;;
13568;SDS011;6856;51.460;7.158;2023-03-01T16:00:35;6.60;;;4.27;;
13568;SDS011;6856;51.460;7.158;2023-03-01T16:03:28;6.13;;;3.90;;
13568;SDS011;6856;51.460;7.158;2023-03-01T16:06:02;5.50;;;3.97;;
13568;SDS011;6856;51.460;7.158;2023-03-01T16:08:36;7.43;;;4.00;;
13568;SDS011;6856;51.460;7.158;2023-03-01T16:11:14;5.87;;;4.00;;
13568;SDS011;6856;51.460;7.158;2023-03-01T16:13:52;5.47;;;3.97;;
13568;SDS011;6856;51.460;7.158;2023-03-01T16:16:26;6.17;;;3.90;;
13568;SDS011;6856;51.460;7.158;2023-03-01T16:19:02;5.87;;;3.67;;
13568;SDS011;6856;51.460;7.158;2023-03-01T16:21:35;6.47;;;3.80;;
13568;SDS011;6856;51.460;7.158;2023-03-01T16:24:10;4.87;;;3.63;;
13568;SDS011;6856;51.460;7.158;2023-03-01T16:26:43;4.80;;;3.33;;
13568;SDS011;6856;51.460;7.158;2023-03-01T16:29:18;6.73;;;3.27;;
13568;SDS011;6856;51.460;7.158;2023-03-01T16:31:52;5.47;;;3.83;;
13568;SDS011;6856;51.460;7.158;2023-03-01T16:34:26;5.30;;;3.77;;
13568;SDS011;6856;51.460;7.158;2023-03-01T16:36:59;5.00;;;3.50;;
13568;SDS011;6856;51.460;7.158;2023-03-01T16:39:34;4.83;;;3.23;;